This is the latest recevied weather packets stored in our database for station/object EA3GKP-10. If no packets are shown the sender has not sent any weather packets the latest 10 day(s).
| Time | Temp. | Humidity | Pressure | Rain* | Wind** | Luminosity | Snow |
|---|---|---|---|---|---|---|---|
| 1777915134 | 21.67° C | - | - | 0 mm | 1.79 m/s, 155° | - | - |
| 1777914830 | 21.67° C | - | - | 0 mm | 1.34 m/s, 132° | - | - |
| 1777914523 | 22.22° C | - | - | 0 mm | 0 m/s | - | - |
| 1777914219 | 21.67° C | - | - | 0 mm | 0.89 m/s, 59° | - | - |
| 1777913915 | 21.11° C | - | - | 0 mm | 1.79 m/s, 104° | - | - |
| 1777913611 | 22.22° C | - | - | 0 mm | 0 m/s | - | - |
| 1777913307 | 21.67° C | - | - | 0 mm | 1.79 m/s, 176° | - | - |
| 1777913003 | 21.11° C | - | - | 0 mm | 1.79 m/s, 83° | - | - |
| 1777912700 | 21.67° C | - | - | 0 mm | 2.24 m/s, 121° | - | - |
| 1777912396 | 21.11° C | - | - | 0 mm | 1.34 m/s, 141° | - | - |
| 1777912092 | 22.78° C | - | - | 0 mm | 2.24 m/s, 96° | - | - |
| 1777911788 | 21.11° C | - | - | 0 mm | 1.79 m/s, 138° | - | - |
| 1777911485 | 20.56° C | - | - | 0 mm | 1.34 m/s, 149° | - | - |
| 1777911180 | 21.11° C | - | - | 0 mm | 2.68 m/s, 75° | - | - |
| 1777910877 | 21.11° C | - | - | 0 mm | 0 m/s | - | - |
| 1777910571 | 21.67° C | - | - | 0 mm | 1.79 m/s, 118° | - | - |
| 1777909659 | 22.22° C | - | - | 0 mm | 0.45 m/s, 359° | - | - |
| 1777909356 | 22.78° C | - | - | 0 mm | 1.79 m/s, 127° | - | - |
| 1777909049 | 21.67° C | - | - | 0 mm | 2.68 m/s, 110° | - | - |
| 1777908745 | 22.22° C | - | - | 0 mm | 1.79 m/s, 105° | - | - |
| 1777907830 | 22.22° C | - | - | 0 mm | 2.24 m/s, 120° | - | - |
| 1777907525 | 22.22° C | - | - | 0 mm | 0.89 m/s, 359° | - | - |
| 1777907220 | 21.11° C | - | - | 0 mm | 0 m/s | - | - |
| 1777906913 | 21.67° C | - | - | 0 mm | 1.79 m/s, 84° | - | - |
| 1777906608 | 21.67° C | - | - | 0 mm | 1.79 m/s, 359° | - | - |
* Rain latest hour (hover to see other rain measurements)
** Current wind speed in m/s (hover to see current wind gust speed)